Terminal Aerodrome Forecast
Issued by NWS

Home | Current Version | Previous Version | Text Only | Print | Product List | Glossary On
Versions: 1 2 3 4 5 6 7 8 9 10 11 12 13
000
FTPQ31 PGUM 282320
TAFGUM
TAF

TAF
PKMJ 282320Z 2900/2924 04010KT P6SM VCTS SCT012CB BKN040 BKN110
      TEMPO 2901/2904 07012G20KT 3SM +SHRA SCT012 OVC040
     FM290700 07011KT P6SM VCSH SCT014 SCT045 BKN120=

USA.gov is the U.S. government's official web portal to all federal, state and local government web resources and services.